Terminal Aerodrome Forecast
Issued by NWS Goodland, KS

Home | Current Version | Previous Version | Text Only | Print | Product List | Glossary On
Versions: 1 2 3 4 5 6 7 8 9 10 11 12 13 14 15 16 17 18 19 20
000
FTUS43 KGLD 151720
TAFGLD
TAF
KGLD 151720Z 1518/1618 12004KT 3SM -FZRAPL BR OVC004
     FM152130 10005KT 2SM -SN OVC003
     FM160500 04005KT 1 1/2SM -SN OVC003
     FM161000 36009KT 1 1/2SM -SN OVC003
     FM161500 34012KT 1/2SM SN OVC003=

USA.gov is the U.S. government's official web portal to all federal, state and local government web resources and services.